Time;durP1;ratioP1;P1;durP2;ratioP2;P2;SDS_P1;SDS_P2;PMS_P1;PMS_P2;Temp;Humidity;BMP_temperature;BMP_pressure;BME280_temperature;BME280_humidity;BME280_pressure;Samples;Min_cycle;Max_cycle;Signal;HPM_P1;HPM_P2
2023/11/20 00:02:09;;;;;;;0.20;0.20;;;;;;;9.84;100.00;98884.50;5092018;28;20478;-59
2023/11/20 00:04:36;;;;;;;0.20;0.20;;;;;;;9.83;100.00;98885.53;5099780;28;20317;-58
2023/11/20 00:07:05;;;;;;;0.20;0.20;;;;;;;9.84;100.00;98890.66;5096510;28;20701;-60
2023/11/20 00:09:32;;;;;;;0.22;0.22;;;;;;;9.84;100.00;98890.66;5099354;28;20070;-59
2023/11/20 00:12:04;;;;;;;0.30;0.30;;;;;;;9.87;100.00;98884.00;5101186;28;20531;-59
2023/11/20 00:14:32;;;;;;;0.20;0.20;;;;;;;9.80;100.00;98883.34;5102518;28;20076;-60
2023/11/20 00:17:00;;;;;;;0.20;0.20;;;;;;;9.86;100.00;98871.66;5100309;28;20089;-60
2023/11/20 00:19:27;;;;;;;0.20;0.20;;;;;;;9.86;100.00;98866.28;5099710;28;20135;-59
2023/11/20 00:21:54;;;;;;;0.13;0.13;;;;;;;9.90;100.00;98875.47;5096023;28;20468;-59
2023/11/20 00:24:21;;;;;;;0.22;0.22;;;;;;;9.87;100.00;98881.31;5088299;28;20050;-59
2023/11/20 00:26:48;;;;;;;0.30;0.30;;;;;;;9.86;100.00;98879.69;5097245;28;20136;-59
2023/11/20 00:29:17;;;;;;;0.10;0.10;;;;;;;9.84;100.00;98874.59;5097339;28;20050;-60
2023/11/20 00:31:45;;;;;;;0.20;0.20;;;;;;;9.93;100.00;98878.47;5097741;28;20153;-59
2023/11/20 00:34:12;;;;;;;0.22;0.22;;;;;;;9.93;100.00;98883.00;5098825;28;20074;-59
2023/11/20 00:36:39;;;;;;;0.20;0.20;;;;;;;9.98;100.00;98877.72;5101133;28;20482;-59
2023/11/20 00:39:06;;;;;;;0.22;0.22;;;;;;;9.84;100.00;98879.94;5098406;28;20052;-60
2023/11/20 00:41:35;;;;;;;0.10;0.10;;;;;;;9.81;100.00;98874.25;5099458;28;20739;-60
2023/11/20 00:44:06;;;;;;;0.30;0.30;;;;;;;9.90;100.00;98872.78;5098383;28;20050;-60
2023/11/20 00:46:34;;;;;;;0.20;0.20;;;;;;;9.97;100.00;98878.78;5099129;28;20416;-59
2023/11/20 00:49:03;;;;;;;0.20;0.20;;;;;;;9.95;100.00;98886.25;5096970;28;20480;-59
2023/11/20 00:51:30;;;;;;;0.22;0.22;;;;;;;9.88;100.00;98890.94;5099726;28;20074;-58
2023/11/20 00:53:58;;;;;;;0.20;0.20;;;;;;;9.91;100.00;98887.81;5092946;28;20592;-59
2023/11/20 00:56:25;;;;;;;0.30;0.30;;;;;;;9.86;100.00;98880.50;5097423;28;20578;-60
2023/11/20 00:58:52;;;;;;;0.20;0.20;;;;;;;9.85;100.00;98883.41;5098332;28;20043;-58
2023/11/20 01:01:20;;;;;;;0.20;0.20;;;;;;;9.83;100.00;98880.19;5095619;28;20529;-60
2023/11/20 01:03:49;;;;;;;0.20;0.20;;;;;;;9.80;100.00;98867.28;5094221;27;20048;-60
2023/11/20 01:06:16;;;;;;;0.17;0.17;;;;;;;9.76;100.00;98871.50;5101266;28;20047;-58
2023/11/20 01:08:43;;;;;;;0.30;0.30;;;;;;;9.80;100.00;98865.41;5101474;28;20056;-59
2023/11/20 01:11:10;;;;;;;0.20;0.20;;;;;;;9.77;100.00;98873.13;5094854;28;20047;-60
2023/11/20 01:13:38;;;;;;;0.30;0.30;;;;;;;9.72;100.00;98861.28;5115363;27;20051;-60
2023/11/20 01:16:06;;;;;;;0.17;0.17;;;;;;;9.76;100.00;98856.28;5099127;28;20047;-60
2023/11/20 01:18:33;;;;;;;0.25;0.25;;;;;;;9.88;100.00;98865.03;5103065;28;20055;-59
2023/11/20 01:21:02;;;;;;;0.20;0.20;;;;;;;9.77;100.00;98870.47;5101333;28;20044;-59
2023/11/20 01:23:30;;;;;;;0.25;0.25;;;;;;;9.82;100.00;98871.34;5101595;27;20051;-60
2023/11/20 01:25:58;;;;;;;0.22;0.22;;;;;;;9.75;100.00;98875.25;5097391;28;20036;-60
2023/11/20 01:28:25;;;;;;;0.30;0.30;;;;;;;9.62;100.00;98869.19;5099673;28;20490;-59
2023/11/20 01:30:53;;;;;;;0.20;0.20;;;;;;;9.64;100.00;98872.41;5098611;28;20047;-59
2023/11/20 01:33:21;;;;;;;0.22;0.22;;;;;;;9.60;100.00;98879.31;5098138;28;20058;-59
2023/11/20 01:35:48;;;;;;;0.25;0.25;;;;;;;9.64;100.00;98868.94;5118513;27;20047;-59
2023/11/20 01:38:18;;;;;;;0.20;0.20;;;;;;;9.54;100.00;98866.13;5099425;28;20639;-59
2023/11/20 01:40:45;;;;;;;0.30;0.30;;;;;;;9.63;100.00;98878.00;5097615;28;20142;-59
2023/11/20 01:43:12;;;;;;;0.10;0.10;;;;;;;9.53;100.00;98869.81;5088653;27;20160;-60
2023/11/20 01:45:41;;;;;;;0.20;0.20;;;;;;;9.50;100.00;98890.66;5098384;28;20058;-60
2023/11/20 01:48:09;;;;;;;0.30;0.30;;;;;;;9.57;100.00;98885.16;5102780;28;20049;-59
2023/11/20 01:50:36;;;;;;;0.30;0.30;;;;;;;9.65;100.00;98871.34;5102302;28;20543;-60
2023/11/20 01:53:04;;;;;;;0.20;0.20;;;;;;;9.69;100.00;98874.38;5102698;27;20075;-60
2023/11/20 01:55:32;;;;;;;0.20;0.20;;;;;;;9.60;100.00;98863.25;5099685;28;20526;-60
2023/11/20 01:58:00;;;;;;;0.30;0.30;;;;;;;9.57;100.00;98868.28;5100612;28;20071;-60
2023/11/20 02:00:27;;;;;;;0.30;0.30;;;;;;;9.47;100.00;98858.25;5100662;28;20044;-59
2023/11/20 02:02:54;;;;;;;0.20;0.20;;;;;;;9.52;100.00;98850.28;5104085;27;20481;-60
2023/11/20 02:05:21;;;;;;;0.10;0.10;;;;;;;9.50;100.00;98852.41;5083086;28;20075;-60
2023/11/20 02:07:54;;;;;;;0.30;0.30;;;;;;;9.50;100.00;98841.69;5112561;27;20052;-59
2023/11/20 02:10:22;;;;;;;0.22;0.22;;;;;;;9.41;100.00;98852.00;5101188;28;20050;-59
2023/11/20 02:12:51;;;;;;;0.20;0.20;;;;;;;9.42;100.00;98842.13;5104364;27;20048;-58
2023/11/20 02:15:21;;;;;;;0.22;0.22;;;;;;;9.39;100.00;98846.09;5100551;28;20044;-58
2023/11/20 02:17:48;;;;;;;0.20;0.20;;;;;;;9.41;100.00;98853.84;5100903;28;20036;-58
2023/11/20 02:20:16;;;;;;;0.20;0.20;;;;;;;9.43;100.00;98852.56;5098513;28;20777;-58
2023/11/20 02:22:43;;;;;;;0.20;0.20;;;;;;;9.37;100.00;98863.44;5102080;28;20728;-58
2023/11/20 02:25:10;;;;;;;0.20;0.20;;;;;;;9.27;100.00;98846.16;5101334;28;20047;-58
2023/11/20 02:27:41;;;;;;;0.20;0.20;;;;;;;9.41;100.00;98844.00;5111510;27;20055;-58
2023/11/20 02:30:10;;;;;;;0.20;0.20;;;;;;;9.40;100.00;98836.19;5101265;28;20089;-59
2023/11/20 02:32:37;;;;;;;0.20;0.20;;;;;;;9.40;100.00;98836.19;5101190;27;20044;-58
2023/11/20 02:35:06;;;;;;;0.20;0.20;;;;;;;9.36;100.00;98835.06;5099408;28;20383;-59
2023/11/20 02:37:34;;;;;;;0.20;0.20;;;;;;;9.44;100.00;98832.78;5100543;28;20028;-58
2023/11/20 02:40:01;;;;;;;0.20;0.20;;;;;;;9.44;100.00;98834.66;5104902;27;20039;-58
2023/11/20 02:42:28;;;;;;;0.20;0.20;;;;;;;9.43;100.00;98825.00;5100115;27;20051;-58
2023/11/20 02:44:55;;;;;;;0.20;0.20;;;;;;;9.39;100.00;98835.41;5091105;28;20047;-58
2023/11/20 02:47:24;;;;;;;0.20;0.20;;;;;;;9.47;100.00;98836.84;5099249;28;20043;-58
2023/11/20 02:49:51;;;;;;;0.10;0.10;;;;;;;9.41;100.00;98827.09;5100828;28;20661;-59
2023/11/20 02:52:20;;;;;;;0.30;0.30;;;;;;;9.39;100.00;98822.03;5092675;28;20820;-58
2023/11/20 02:54:48;;;;;;;0.20;0.20;;;;;;;9.39;100.00;98826.56;5098511;28;20826;-60
2023/11/20 02:57:16;;;;;;;0.30;0.30;;;;;;;9.44;100.00;98819.41;5097719;28;20108;-59
2023/11/20 02:59:43;;;;;;;0.20;0.20;;;;;;;9.40;100.00;98825.50;5097501;28;20055;-59
2023/11/20 03:02:13;;;;;;;0.32;0.32;;;;;;;9.38;100.00;98827.59;5099414;28;20035;-59
2023/11/20 03:04:44;;;;;;;0.20;0.20;;;;;;;9.39;100.00;98823.88;5099636;28;20040;-59
2023/11/20 03:07:13;;;;;;;0.28;0.28;;;;;;;9.34;100.00;98829.16;5092970;28;20529;-59
2023/11/20 03:09:40;;;;;;;0.20;0.20;;;;;;;9.34;100.00;98815.78;5099963;28;20131;-59
2023/11/20 03:12:08;;;;;;;0.15;0.15;;;;;;;9.21;100.00;98820.41;5096226;28;20048;-59
2023/11/20 03:14:36;;;;;;;0.20;0.20;;;;;;;9.27;100.00;98816.75;5094454;28;20437;-59
2023/11/20 03:17:03;;;;;;;0.30;0.30;;;;;;;9.32;100.00;98816.03;5094158;28;20067;-58
2023/11/20 03:19:30;;;;;;;0.22;0.22;;;;;;;9.15;100.00;98817.88;5096459;28;20047;-58
2023/11/20 03:21:58;;;;;;;0.20;0.20;;;;;;;9.17;100.00;98821.94;5100583;27;20311;-58
2023/11/20 03:24:26;;;;;;;0.20;0.20;;;;;;;9.26;100.00;98835.69;5099488;28;20230;-58
2023/11/20 03:26:53;;;;;;;0.20;0.20;;;;;;;9.34;100.00;98831.84;5095178;28;20073;-58
2023/11/20 03:29:20;;;;;;;0.30;0.30;;;;;;;9.40;100.00;98836.19;5101371;27;20063;-58
2023/11/20 03:31:47;;;;;;;0.20;0.20;;;;;;;9.34;100.00;98815.78;5099959;28;20050;-58
2023/11/20 03:34:14;;;;;;;0.20;0.20;;;;;;;9.46;100.00;98836.03;5114165;27;20049;-58
2023/11/20 03:36:42;;;;;;;0.30;0.30;;;;;;;9.47;100.00;98837.66;5097929;28;20478;-58
2023/11/20 03:39:11;;;;;;;0.20;0.20;;;;;;;9.49;100.00;98837.41;5099204;28;20538;-58
2023/11/20 03:41:38;;;;;;;0.20;0.20;;;;;;;9.44;100.00;98832.00;5096143;28;20051;-58
2023/11/20 03:44:05;;;;;;;0.20;0.20;;;;;;;9.33;100.00;98838.22;5092575;28;20132;-58
2023/11/20 03:46:32;;;;;;;0.20;0.20;;;;;;;9.39;100.00;98839.94;5098467;28;20035;-58
2023/11/20 03:49:01;;;;;;;0.20;0.20;;;;;;;9.37;100.00;98836.69;5092498;28;20485;-58
2023/11/20 03:51:29;;;;;;;0.20;0.20;;;;;;;9.29;100.00;98841.38;5099299;28;20035;-58
2023/11/20 03:53:57;;;;;;;0.20;0.20;;;;;;;9.27;100.00;98848.84;5100280;28;20040;-58
2023/11/20 03:56:25;;;;;;;0.20;0.20;;;;;;;9.29;100.00;98845.94;5098284;28;20058;-58
2023/11/20 03:58:53;;;;;;;0.20;0.20;;;;;;;9.19;100.00;98835.06;5095183;28;20063;-58
2023/11/20 04:01:20;;;;;;;0.20;0.20;;;;;;;9.15;100.00;98840.09;5106582;27;20043;-58
2023/11/20 04:03:47;;;;;;;0.20;0.20;;;;;;;9.15;100.00;98842.75;5098389;28;20043;-59
2023/11/20 04:06:17;;;;;;;0.20;0.20;;;;;;;9.12;100.00;98837.91;5096914;27;20052;-58
2023/11/20 04:08:44;;;;;;;0.20;0.20;;;;;;;9.18;100.00;98842.25;5092510;28;20040;-58
2023/11/20 04:11:13;;;;;;;0.20;0.20;;;;;;;8.98;100.00;98840.06;5098856;28;20044;-59
2023/11/20 04:13:43;;;;;;;0.28;0.28;;;;;;;8.89;100.00;98832.72;5100633;28;20036;-58
2023/11/20 04:16:14;;;;;;;0.30;0.30;;;;;;;8.83;100.00;98824.56;5093775;28;20126;-58
2023/11/20 04:18:41;;;;;;;0.22;0.22;;;;;;;8.81;100.00;98831.22;5090785;28;20040;-58
2023/11/20 04:21:09;;;;;;;0.20;0.20;;;;;;;8.78;100.00;98823.69;5092742;28;20059;-58
2023/11/20 04:23:36;;;;;;;0.30;0.30;;;;;;;8.82;100.00;98820.28;5095492;28;20501;-58
2023/11/20 04:26:04;;;;;;;0.10;0.10;;;;;;;8.81;100.00;98824.03;5100558;28;20043;-59
2023/11/20 04:28:31;;;;;;;0.20;0.20;;;;;;;8.84;100.00;98828.88;5106732;28;20067;-58
2023/11/20 04:31:00;;;;;;;0.20;0.20;;;;;;;8.92;100.00;98829.53;5096141;28;20603;-58
2023/11/20 04:33:27;;;;;;;0.20;0.20;;;;;;;8.87;100.00;98821.44;5094419;28;20071;-58
2023/11/20 04:35:55;;;;;;;0.30;0.30;;;;;;;8.90;100.00;98820.94;5098344;28;20053;-58
2023/11/20 04:38:28;;;;;;;0.20;0.20;;;;;;;8.91;100.00;98823.41;5099084;28;20121;-58
2023/11/20 04:40:57;;;;;;;0.20;0.20;;;;;;;8.90;100.00;98818.28;5102191;28;20308;-58
2023/11/20 04:43:25;;;;;;;0.20;0.20;;;;;;;8.96;100.00;98826.16;5100741;28;20047;-59
2023/11/20 04:45:52;;;;;;;0.22;0.22;;;;;;;9.05;100.00;98818.53;5103777;28;20510;-58
2023/11/20 04:48:24;;;;;;;0.20;0.20;;;;;;;9.05;100.00;98831.91;5114939;27;20046;-58
2023/11/20 04:50:52;;;;;;;0.20;0.20;;;;;;;9.14;100.00;98835.00;5099330;28;20806;-59
2023/11/20 04:53:20;;;;;;;0.20;0.20;;;;;;;9.23;100.00;98823.63;5101757;28;20047;-59
2023/11/20 04:55:47;;;;;;;0.20;0.20;;;;;;;9.19;100.00;98827.84;5102632;28;20143;-59
2023/11/20 04:58:20;;;;;;;0.20;0.20;;;;;;;9.12;100.00;98829.88;5095512;28;20055;-58
2023/11/20 05:00:48;;;;;;;0.20;0.20;;;;;;;9.13;100.00;98830.69;5092382;28;20048;-58
2023/11/20 05:03:15;;;;;;;0.20;0.20;;;;;;;9.12;100.00;98831.75;5103977;28;20147;-58
2023/11/20 05:05:43;;;;;;;0.20;0.20;;;;;;;9.28;100.00;98844.28;5099758;28;20078;-58
2023/11/20 05:08:10;;;;;;;0.22;0.22;;;;;;;9.28;100.00;98841.63;5099480;27;20082;-58
2023/11/20 05:10:38;;;;;;;0.20;0.20;;;;;;;9.21;100.00;98841.81;5102655;28;20043;-60
2023/11/20 05:13:07;;;;;;;0.20;0.20;;;;;;;9.21;100.00;98839.13;5101721;27;20088;-61
2023/11/20 05:15:35;;;;;;;0.20;0.20;;;;;;;9.17;100.00;98829.97;5100600;28;20120;-59
2023/11/20 05:18:02;;;;;;;0.25;0.25;;;;;;;9.17;100.00;98832.63;5099955;28;20147;-59
2023/11/20 05:20:29;;;;;;;0.20;0.20;;;;;;;9.13;100.00;98831.50;5101680;28;20042;-59
2023/11/20 05:22:58;;;;;;;0.20;0.20;;;;;;;9.11;100.00;98830.09;5102490;28;20054;-59
2023/11/20 05:25:25;;;;;;;0.20;0.20;;;;;;;9.04;100.00;98828.41;5099841;28;20278;-59
2023/11/20 05:27:52;;;;;;;0.20;0.20;;;;;;;9.06;100.00;98838.84;5097727;28;20557;-59
2023/11/20 05:30:20;;;;;;;0.20;0.20;;;;;;;9.00;100.00;98837.16;5103061;28;20039;-59
2023/11/20 05:32:47;;;;;;;0.15;0.15;;;;;;;9.00;100.00;98832.63;5102636;28;20070;-58
2023/11/20 05:35:14;;;;;;;0.30;0.30;;;;;;;8.97;100.00;98827.75;5104376;27;20130;-59
2023/11/20 05:37:41;;;;;;;0.20;0.20;;;;;;;9.02;100.00;98833.19;5099526;28;20066;-58
2023/11/20 05:40:11;;;;;;;0.20;0.20;;;;;;;8.93;100.00;98831.16;5100778;28;20524;-59
2023/11/20 05:42:39;;;;;;;0.27;0.27;;;;;;;8.95;100.00;98837.06;5099380;28;20524;-58
2023/11/20 05:45:08;;;;;;;0.25;0.25;;;;;;;8.89;100.00;98835.38;5101012;28;20043;-58
2023/11/20 05:47:35;;;;;;;0.20;0.20;;;;;;;8.84;100.00;98834.22;5098638;28;20040;-59
2023/11/20 05:50:02;;;;;;;0.20;0.20;;;;;;;8.82;100.00;98836.31;5098036;28;20048;-58
2023/11/20 05:52:32;;;;;;;0.28;0.28;;;;;;;8.87;100.00;98838.28;5098095;28;20048;-59
2023/11/20 05:54:59;;;;;;;0.20;0.20;;;;;;;8.85;100.00;98833.16;5096934;28;20058;-58
2023/11/20 05:57:28;;;;;;;0.20;0.20;;;;;;;8.81;100.00;98833.88;5099804;28;20617;-59
2023/11/20 05:59:59;;;;;;;0.20;0.20;;;;;;;8.76;100.00;98839.97;5103005;28;20039;-59
2023/11/20 06:02:27;;;;;;;0.20;0.20;;;;;;;8.73;100.00;98836.94;5094505;28;20457;-59
2023/11/20 06:04:54;;;;;;;0.20;0.20;;;;;;;8.76;100.00;98839.13;5098514;28;20863;-59
2023/11/20 06:07:24;;;;;;;0.20;0.20;;;;;;;8.73;100.00;98843.09;5101528;28;20313;-61
2023/11/20 06:09:51;;;;;;;0.30;0.30;;;;;;;8.63;100.00;98833.03;5101582;28;20040;-58
2023/11/20 06:12:19;;;;;;;0.15;0.15;;;;;;;8.63;100.00;98832.22;5102229;28;20496;-59
2023/11/20 06:14:47;;;;;;;0.20;0.20;;;;;;;8.60;100.00;98835.38;5100412;28;20097;-60
2023/11/20 06:17:15;;;;;;;0.20;0.20;;;;;;;8.55;100.00;98832.63;5087900;28;20052;-59
2023/11/20 06:19:42;;;;;;;0.20;0.20;;;;;;;8.53;100.00;98834.72;5099568;28;20596;-60
2023/11/20 06:22:09;;;;;;;0.25;0.25;;;;;;;8.54;100.00;98839.03;5095924;28;20044;-60
2023/11/20 06:24:37;;;;;;;0.20;0.20;;;;;;;8.52;100.00;98838.44;5095785;28;20056;-60
2023/11/20 06:27:05;;;;;;;0.20;0.20;;;;;;;8.45;100.00;98840.44;5102032;28;20051;-60
2023/11/20 06:29:32;;;;;;;0.38;0.38;;;;;;;8.52;100.00;98838.44;5101377;28;20052;-60
2023/11/20 06:32:00;;;;;;;0.28;0.28;;;;;;;8.52;100.00;98831.25;5101497;28;20901;-60
2023/11/20 06:34:27;;;;;;;0.30;0.30;;;;;;;8.54;100.00;98841.69;5098884;27;20406;-60
2023/11/20 06:36:54;;;;;;;0.30;0.30;;;;;;;8.46;100.00;98832.19;5099613;28;20473;-58
2023/11/20 06:39:21;;;;;;;0.30;0.30;;;;;;;8.48;100.00;98832.75;5100125;28;20681;-58
2023/11/20 06:41:50;;;;;;;0.20;0.20;;;;;;;8.45;100.00;98843.91;5093660;28;20563;-58
2023/11/20 06:44:17;;;;;;;0.30;0.30;;;;;;;8.46;100.00;98844.72;5096846;28;20058;-58
2023/11/20 06:46:44;;;;;;;0.30;0.30;;;;;;;8.43;100.00;98857.50;5099292;27;20464;-58
2023/11/20 06:49:13;;;;;;;0.30;0.30;;;;;;;8.44;100.00;98861.00;5100146;28;20461;-59
2023/11/20 06:51:43;;;;;;;0.30;0.30;;;;;;;8.50;100.00;98848.56;5094813;28;20051;-59
2023/11/20 06:54:10;;;;;;;0.30;0.30;;;;;;;8.45;100.00;98853.78;5099278;28;20048;-59
2023/11/20 06:56:38;;;;;;;0.20;0.20;;;;;;;8.57;100.00;98857.25;5095843;28;20134;-59
2023/11/20 06:59:05;;;;;;;0.20;0.20;;;;;;;8.55;100.00;98870.03;5099744;28;20077;-58
2023/11/20 07:01:32;;;;;;;0.30;0.30;;;;;;;8.56;100.00;98866.28;5096814;28;20055;-58
2023/11/20 07:03:59;;;;;;;0.20;0.20;;;;;;;8.61;100.00;98863.72;5098680;28;20207;-59
2023/11/20 07:06:28;;;;;;;0.20;0.20;;;;;;;8.47;100.00;98865.06;5097972;27;20056;-60
2023/11/20 07:08:55;;;;;;;0.30;0.30;;;;;;;8.57;100.00;98863.38;5100159;28;20052;-59
2023/11/20 07:11:22;;;;;;;0.30;0.30;;;;;;;8.54;100.00;98873.75;5092582;28;20489;-59
2023/11/20 07:13:49;;;;;;;0.30;0.30;;;;;;;8.47;100.00;98865.88;5100205;28;20105;-59
2023/11/20 07:16:16;;;;;;;0.20;0.20;;;;;;;8.53;100.00;98874.78;5093811;28;20101;-59
2023/11/20 07:18:43;;;;;;;0.20;0.20;;;;;;;8.52;100.00;98873.97;5095421;28;20523;-58
2023/11/20 07:21:10;;;;;;;0.17;0.17;;;;;;;8.57;100.00;98871.41;5099325;28;20046;-58
2023/11/20 07:23:39;;;;;;;0.28;0.28;;;;;;;8.52;100.00;98873.97;5106078;27;20043;-58
2023/11/20 07:26:06;;;;;;;0.28;0.28;;;;;;;8.54;100.00;98877.22;5095991;28;20063;-58
2023/11/20 07:28:34;;;;;;;0.22;0.22;;;;;;;8.59;100.00;98863.16;5093605;28;20059;-58
2023/11/20 07:31:02;;;;;;;0.30;0.30;;;;;;;8.68;100.00;98866.25;5097967;28;20044;-58
2023/11/20 07:33:29;;;;;;;0.30;0.30;;;;;;;8.75;100.00;98862.38;5099271;28;20091;-58
2023/11/20 07:35:56;;;;;;;0.28;0.28;;;;;;;8.80;100.00;98865.16;5094425;28;20136;-58
2023/11/20 07:38:23;;;;;;;0.32;0.32;;;;;;;8.81;100.00;98860.59;5092992;28;20326;-58
2023/11/20 07:40:51;;;;;;;0.20;0.20;;;;;;;8.77;100.00;98860.28;5098189;28;20040;-58
2023/11/20 07:43:19;;;;;;;0.28;0.28;;;;;;;8.90;100.00;98858.38;5096633;28;20481;-60
2023/11/20 07:45:46;;;;;;;0.30;0.30;;;;;;;8.84;100.00;98860.94;5098583;28;20050;-57
2023/11/20 07:48:13;;;;;;;0.28;0.28;;;;;;;8.93;100.00;98868.56;5101202;28;20134;-58
2023/11/20 07:50:40;;;;;;;0.25;0.25;;;;;;;8.91;100.00;98868.00;5096076;28;20045;-58
2023/11/20 07:53:07;;;;;;;0.20;0.20;;;;;;;9.04;100.00;98865.84;5096012;28;20047;-57
2023/11/20 07:55:34;;;;;;;0.20;0.20;;;;;;;9.05;100.00;98855.97;5094540;28;20054;-58
2023/11/20 07:58:04;;;;;;;0.30;0.30;;;;;;;9.63;100.00;98860.09;5096192;28;20699;-57
2023/11/20 08:00:31;;;;;;;0.30;0.30;;;;;;;10.33;100.00;98860.50;5099643;28;20128;-59
2023/11/20 08:02:58;;;;;;;0.20;0.20;;;;;;;10.05;100.00;98856.91;5099179;28;20158;-58
2023/11/20 08:05:25;;;;;;;0.20;0.20;;;;;;;10.32;100.00;98853.53;5097776;28;20057;-58
2023/11/20 08:07:52;;;;;;;0.20;0.20;;;;;;;10.38;100.00;98857.88;5102008;27;20113;-57
2023/11/20 08:10:21;;;;;;;0.30;0.30;;;;;;;10.77;100.00;98866.63;5101107;28;20146;-58
2023/11/20 08:12:48;;;;;;;0.20;0.20;;;;;;;11.14;100.00;98870.50;5097489;28;20047;-59
2023/11/20 08:15:16;;;;;;;0.20;0.20;;;;;;;10.60;100.00;98868.59;5096151;28;20047;-59
2023/11/20 08:17:44;;;;;;;0.20;0.20;;;;;;;10.79;100.00;98879.81;5094505;28;20134;-59
2023/11/20 08:20:11;;;;;;;0.20;0.20;;;;;;;10.66;100.00;98883.69;5093946;28;20055;-59
2023/11/20 08:22:39;;;;;;;0.17;0.17;;;;;;;11.51;100.00;98883.13;5099774;28;20051;-59
2023/11/20 08:25:07;;;;;;;0.20;0.20;;;;;;;11.64;100.00;98882.69;5100976;28;20051;-59
2023/11/20 08:27:36;;;;;;;0.10;0.10;;;;;;;10.65;100.00;98890.09;5106951;27;20048;-59
2023/11/20 08:30:04;;;;;;;0.15;0.15;;;;;;;10.19;100.00;98891.41;5108553;27;20039;-59
2023/11/20 08:32:33;;;;;;;0.20;0.20;;;;;;;9.97;100.00;98894.84;5099246;28;20486;-59
2023/11/20 08:35:00;;;;;;;0.10;0.10;;;;;;;9.99;100.00;98892.72;5091985;28;20077;-59
2023/11/20 08:37:27;;;;;;;0.10;0.10;;;;;;;9.92;100.00;98892.09;5099065;28;20052;-59
2023/11/20 08:39:54;;;;;;;0.13;0.13;;;;;;;9.82;100.00;98898.09;5099703;28;20040;-59
2023/11/20 08:42:25;;;;;;;0.10;0.10;;;;;;;9.63;100.00;98904.75;5100731;28;20734;-59
2023/11/20 08:44:53;;;;;;;0.20;0.20;;;;;;;9.51;100.00;98896.84;5089802;28;20055;-58
2023/11/20 08:47:20;;;;;;;0.13;0.13;;;;;;;9.49;100.00;98899.75;5099973;28;20043;-58
2023/11/20 08:49:51;;;;;;;0.10;0.10;;;;;;;9.26;100.00;98898.03;5108463;28;20039;-59
2023/11/20 08:52:19;;;;;;;0.20;0.20;;;;;;;9.27;100.00;98891.63;5102089;28;20069;-59
2023/11/20 08:54:46;;;;;;;0.20;0.20;;;;;;;9.16;100.00;98889.84;5092553;28;20068;-59
2023/11/20 08:57:13;;;;;;;0.30;0.30;;;;;;;9.04;100.00;98887.22;5102184;28;20126;-58
2023/11/20 08:59:40;;;;;;;0.22;0.22;;;;;;;8.91;100.00;98876.84;5089678;28;20044;-58
2023/11/20 09:02:08;;;;;;;0.28;0.28;;;;;;;9.05;100.00;98872.00;5098300;28;20119;-59
2023/11/20 09:04:35;;;;;;;0.20;0.20;;;;;;;9.57;100.00;98884.34;5097405;28;20039;-59
2023/11/20 09:07:05;;;;;;;0.30;0.30;;;;;;;10.57;100.00;98877.16;5100505;27;20040;-58
2023/11/20 09:09:35;;;;;;;;;;;;;;;10.14;100.00;98884.91;5058553;28;20040;-59
2023/11/20 09:12:02;;;;;;;0.20;0.20;;;;;;;9.76;100.00;98872.34;5059242;28;20286;-59
2023/11/20 09:14:29;;;;;;;0.28;0.28;;;;;;;10.22;100.00;98872.94;5058695;28;20379;-59
2023/11/20 09:16:57;;;;;;;0.30;0.30;;;;;;;9.85;100.00;98876.19;5059524;28;20285;-59
2023/11/20 09:19:24;;;;;;;0.40;0.40;;;;;;;10.42;100.00;98869.75;5055436;28;20048;-59
2023/11/20 09:21:52;;;;;;;0.30;0.30;;;;;;;10.87;100.00;98857.88;5057738;28;20105;-58
2023/11/20 09:24:20;;;;;;;0.22;0.22;;;;;;;11.38;100.00;98858.34;5060498;28;20118;-59
2023/11/20 09:26:47;;;;;;;0.28;0.28;;;;;;;11.81;100.00;98859.19;5065619;28;20141;-59
2023/11/20 09:29:15;;;;;;;0.22;0.22;;;;;;;12.02;100.00;98853.94;5063525;28;20067;-59
2023/11/20 09:31:44;;;;;;;0.20;0.20;;;;;;;11.92;100.00;98853.91;5056842;28;20056;-59
2023/11/20 09:34:12;;;;;;;0.30;0.30;;;;;;;12.41;100.00;98861.66;5063323;28;20542;-59
2023/11/20 09:36:39;;;;;;;0.20;0.20;;;;;;;12.26;100.00;98860.53;5057600;28;20076;-59
2023/11/20 09:39:06;;;;;;;0.20;0.20;;;;;;;13.31;100.00;98853.25;5062393;28;20086;-59
2023/11/20 09:41:37;;;;;;;0.22;0.22;;;;;;;12.58;99.80;98850.66;5062987;28;20051;-59
2023/11/20 09:44:06;;;;;;;0.20;0.20;;;;;;;13.36;98.31;98847.88;5058280;28;20124;-58
2023/11/20 09:46:34;;;;;;;0.20;0.20;;;;;;;12.95;92.91;98839.72;5063130;28;20058;-58
2023/11/20 09:49:01;;;;;;;0.20;0.20;;;;;;;13.32;94.20;98852.97;5058343;28;20055;-58
2023/11/20 09:51:28;;;;;;;0.20;0.20;;;;;;;14.01;91.56;98848.81;5059201;28;20040;-59
2023/11/20 09:53:55;;;;;;;0.10;0.10;;;;;;;13.73;88.73;98852.13;5059817;28;20052;-57
2023/11/20 09:56:22;;;;;;;0.17;0.17;;;;;;;14.41;85.56;98840.88;5060407;28;20449;-58
2023/11/20 09:58:51;;;;;;;0.10;0.10;;;;;;;13.94;87.02;98834.84;5061097;28;20521;-58
2023/11/20 10:01:18;;;;;;;0.10;0.10;;;;;;;13.91;88.19;98832.69;5055067;28;20056;-58
2023/11/20 10:03:45;;;;;;;0.00;0.00;;;;;;;13.23;89.88;98834.91;5056012;28;20052;-58
2023/11/20 10:06:14;;;;;;;0.10;0.10;;;;;;;12.68;94.13;98830.00;5060236;28;20103;-58
2023/11/20 10:08:42;;;;;;;0.13;0.13;;;;;;;13.59;89.53;98846.50;5087667;28;20047;-58
2023/11/20 10:11:10;;;;;;;0.10;0.10;;;;;;;13.30;89.85;98851.63;5098878;28;20301;-57
2023/11/20 10:13:39;;;;;;;0.10;0.10;;;;;;;13.34;89.14;98855.41;5100834;28;20465;-58
2023/11/20 10:16:12;;;;;;;0.10;0.10;;;;;;;12.51;94.64;98851.75;5100388;28;20044;-58
2023/11/20 10:18:39;;;;;;;0.20;0.20;;;;;;;13.46;88.72;98852.44;5099571;28;20048;-58
2023/11/20 10:21:07;;;;;;;0.17;0.17;;;;;;;13.55;87.46;98843.53;5102060;28;20090;-58
2023/11/20 10:23:37;;;;;;;0.00;0.00;;;;;;;13.34;89.32;98847.31;5098297;28;20043;-58
2023/11/20 10:26:06;;;;;;;0.20;0.20;;;;;;;14.10;85.32;98834.78;5106552;27;20031;-58
2023/11/20 10:28:33;;;;;;;0.10;0.10;;;;;;;14.38;84.18;98823.34;5097679;28;20043;-58
2023/11/20 10:31:01;;;;;;;0.10;0.10;;;;;;;13.41;85.50;98829.00;5098548;28;20486;-58
2023/11/20 10:33:29;;;;;;;0.10;0.10;;;;;;;12.32;91.81;98822.91;5099318;28;20039;-58
2023/11/20 10:35:56;;;;;;;0.10;0.10;;;;;;;12.09;96.15;98814.25;5100710;28;20168;-58
2023/11/20 10:38:24;;;;;;;0.10;0.10;;;;;;;11.99;96.15;98816.88;5101120;28;20048;-58
2023/11/20 10:40:57;;;;;;;0.00;0.00;;;;;;;12.15;96.47;98821.22;5097201;28;20138;-58
2023/11/20 10:43:27;;;;;;;0.20;0.20;;;;;;;12.08;98.87;98815.28;5096934;28;20047;-58
2023/11/20 10:45:54;;;;;;;0.20;0.20;;;;;;;12.09;97.17;98814.25;5102366;28;20039;-60
2023/11/20 10:48:22;;;;;;;0.10;0.10;;;;;;;11.86;97.11;98808.22;5098212;28;20063;-58
2023/11/20 10:50:50;;;;;;;0.10;0.10;;;;;;;11.68;97.10;98805.94;5099761;28;20050;-58
2023/11/20 10:53:18;;;;;;;0.20;0.20;;;;;;;11.59;98.41;98807.50;5100410;28;20062;-57
2023/11/20 10:55:50;;;;;;;0.20;0.20;;;;;;;11.88;97.67;98810.63;5099416;27;20638;-59
2023/11/20 10:58:17;;;;;;;0.15;0.15;;;;;;;11.51;98.12;98813.38;5099096;28;20055;-59
2023/11/20 11:00:44;;;;;;;0.10;0.10;;;;;;;11.42;100.00;98813.03;5100813;27;20051;-59
2023/11/20 11:03:11;;;;;;;0.20;0.20;;;;;;;11.08;100.00;98807.94;5102016;28;20048;-59
2023/11/20 11:05:40;;;;;;;0.20;0.20;;;;;;;10.97;100.00;98804.34;5100614;28;20131;-59
2023/11/20 11:08:09;;;;;;;0.13;0.13;;;;;;;10.98;100.00;98797.94;5097046;28;20056;-60
2023/11/20 11:10:38;;;;;;;0.10;0.10;;;;;;;10.68;100.00;98798.44;5097061;28;20047;-59
2023/11/20 11:13:05;;;;;;;0.10;0.10;;;;;;;10.59;100.00;98789.28;5098857;27;20044;-59
2023/11/20 11:15:32;;;;;;;0.10;0.10;;;;;;;11.12;100.00;98797.50;5100872;28;20055;-60
2023/11/20 11:18:03;;;;;;;0.15;0.15;;;;;;;11.27;100.00;98786.88;5100336;28;20047;-60
2023/11/20 11:20:32;;;;;;;0.20;0.20;;;;;;;10.73;100.00;98787.81;5096313;28;20052;-59
2023/11/20 11:23:00;;;;;;;0.20;0.20;;;;;;;10.52;100.00;98770.72;5104856;27;20055;-59
2023/11/20 11:25:30;;;;;;;0.20;0.20;;;;;;;10.37;100.00;98770.56;5095604;28;20038;-59
2023/11/20 11:27:57;;;;;;;0.10;0.10;;;;;;;10.65;100.00;98772.16;5098325;28;20481;-59
2023/11/20 11:30:25;;;;;;;0.20;0.20;;;;;;;10.90;100.00;98771.59;5094941;28;20113;-59
2023/11/20 11:33:05;;;;;;;0.20;0.20;;;;;;;10.94;100.00;98763.84;5097623;28;20447;-59
2023/11/20 11:35:37;;;;;;;;;;;;;;;10.91;100.00;98770.53;5094779;27;20048;-59